sensor_id;sensor_type;location;lat;lon;timestamp;P1;durP1;ratioP1;P2;durP2;ratioP2
47089;SDS011;32840;52.516;13.294;2024-01-10T00:02:03;81.07;;;33.78;;
47089;SDS011;32840;52.516;13.294;2024-01-10T00:04:47;78.13;;;35.97;;
47089;SDS011;32840;52.516;13.294;2024-01-10T00:07:33;88.22;;;37.95;;
47089;SDS011;32840;52.516;13.294;2024-01-10T00:10:21;82.88;;;37.15;;
47089;SDS011;32840;52.516;13.294;2024-01-10T00:13:07;77.97;;;34.70;;
47089;SDS011;32840;52.516;13.294;2024-01-10T00:15:52;89.13;;;36.83;;
47089;SDS011;32840;52.516;13.294;2024-01-10T00:18:37;86.20;;;36.90;;
47089;SDS011;32840;52.516;13.294;2024-01-10T00:21:23;85.90;;;36.80;;
47089;SDS011;32840;52.516;13.294;2024-01-10T00:24:08;79.22;;;35.30;;
47089;SDS011;32840;52.516;13.294;2024-01-10T00:26:52;92.10;;;38.83;;
47089;SDS011;32840;52.516;13.294;2024-01-10T00:29:37;83.07;;;40.33;;
47089;SDS011;32840;52.516;13.294;2024-01-10T00:32:22;86.47;;;36.95;;
47089;SDS011;32840;52.516;13.294;2024-01-10T00:35:07;87.32;;;37.63;;
47089;SDS011;32840;52.516;13.294;2024-01-10T00:37:53;82.00;;;37.50;;
47089;SDS011;32840;52.516;13.294;2024-01-10T00:40:38;91.53;;;39.60;;
47089;SDS011;32840;52.516;13.294;2024-01-10T00:43:23;86.22;;;35.85;;
47089;SDS011;32840;52.516;13.294;2024-01-10T00:46:08;82.53;;;36.60;;
47089;SDS011;32840;52.516;13.294;2024-01-10T00:48:53;84.90;;;37.05;;
47089;SDS011;32840;52.516;13.294;2024-01-10T00:51:38;87.70;;;36.38;;
47089;SDS011;32840;52.516;13.294;2024-01-10T00:54:23;88.70;;;37.83;;
47089;SDS011;32840;52.516;13.294;2024-01-10T00:57:08;89.15;;;37.08;;
47089;SDS011;32840;52.516;13.294;2024-01-10T00:59:53;83.70;;;36.95;;
47089;SDS011;32840;52.516;13.294;2024-01-10T01:02:38;86.82;;;37.97;;
47089;SDS011;32840;52.516;13.294;2024-01-10T01:05:25;82.10;;;37.30;;
47089;SDS011;32840;52.516;13.294;2024-01-10T01:08:10;84.47;;;36.33;;
47089;SDS011;32840;52.516;13.294;2024-01-10T01:10:55;80.57;;;34.72;;
47089;SDS011;32840;52.516;13.294;2024-01-10T01:13:40;95.40;;;39.00;;
47089;SDS011;32840;52.516;13.294;2024-01-10T01:16:25;88.85;;;35.83;;
47089;SDS011;32840;52.516;13.294;2024-01-10T01:19:10;82.60;;;34.83;;
47089;SDS011;32840;52.516;13.294;2024-01-10T01:21:54;78.45;;;35.88;;
47089;SDS011;32840;52.516;13.294;2024-01-10T01:24:39;80.03;;;34.13;;
47089;SDS011;32840;52.516;13.294;2024-01-10T01:27:24;84.90;;;35.42;;
47089;SDS011;32840;52.516;13.294;2024-01-10T01:30:09;78.85;;;33.97;;
47089;SDS011;32840;52.516;13.294;2024-01-10T01:32:55;74.82;;;34.03;;
47089;SDS011;32840;52.516;13.294;2024-01-10T01:35:40;89.35;;;34.40;;
47089;SDS011;32840;52.516;13.294;2024-01-10T01:38:25;80.07;;;35.80;;
47089;SDS011;32840;52.516;13.294;2024-01-10T01:41:11;79.35;;;35.03;;
47089;SDS011;32840;52.516;13.294;2024-01-10T01:43:56;77.70;;;34.05;;
47089;SDS011;32840;52.516;13.294;2024-01-10T01:46:41;81.43;;;33.97;;
47089;SDS011;32840;52.516;13.294;2024-01-10T01:49:25;80.70;;;34.60;;
47089;SDS011;32840;52.516;13.294;2024-01-10T01:52:10;86.78;;;37.13;;
47089;SDS011;32840;52.516;13.294;2024-01-10T01:54:57;75.28;;;32.65;;
47089;SDS011;32840;52.516;13.294;2024-01-10T01:57:44;73.40;;;32.47;;
47089;SDS011;32840;52.516;13.294;2024-01-10T02:00:29;82.68;;;32.85;;
47089;SDS011;32840;52.516;13.294;2024-01-10T02:03:14;79.45;;;33.33;;
47089;SDS011;32840;52.516;13.294;2024-01-10T02:06:00;75.78;;;33.83;;
47089;SDS011;32840;52.516;13.294;2024-01-10T02:08:48;81.40;;;33.92;;
47089;SDS011;32840;52.516;13.294;2024-01-10T02:11:32;74.32;;;33.30;;
47089;SDS011;32840;52.516;13.294;2024-01-10T02:14:17;79.93;;;33.17;;
47089;SDS011;32840;52.516;13.294;2024-01-10T02:17:02;75.25;;;35.08;;
47089;SDS011;32840;52.516;13.294;2024-01-10T02:19:47;82.70;;;33.53;;
47089;SDS011;32840;52.516;13.294;2024-01-10T02:22:32;78.50;;;35.00;;
47089;SDS011;32840;52.516;13.294;2024-01-10T02:25:17;81.50;;;35.35;;
47089;SDS011;32840;52.516;13.294;2024-01-10T02:28:02;76.68;;;34.22;;
47089;SDS011;32840;52.516;13.294;2024-01-10T02:30:47;75.50;;;32.10;;
47089;SDS011;32840;52.516;13.294;2024-01-10T02:33:32;78.72;;;33.97;;
47089;SDS011;32840;52.516;13.294;2024-01-10T02:36:17;80.25;;;33.83;;
47089;SDS011;32840;52.516;13.294;2024-01-10T02:39:02;78.68;;;33.45;;
47089;SDS011;32840;52.516;13.294;2024-01-10T02:41:47;75.97;;;32.47;;
47089;SDS011;32840;52.516;13.294;2024-01-10T02:44:31;79.50;;;33.67;;
47089;SDS011;32840;52.516;13.294;2024-01-10T02:47:16;83.20;;;34.92;;
47089;SDS011;32840;52.516;13.294;2024-01-10T02:50:01;75.70;;;33.33;;
47089;SDS011;32840;52.516;13.294;2024-01-10T02:52:46;73.90;;;33.38;;
47089;SDS011;32840;52.516;13.294;2024-01-10T02:55:31;73.05;;;33.58;;
47089;SDS011;32840;52.516;13.294;2024-01-10T02:58:15;75.63;;;33.03;;
47089;SDS011;32840;52.516;13.294;2024-01-10T03:01:00;80.78;;;33.88;;
47089;SDS011;32840;52.516;13.294;2024-01-10T03:03:45;81.53;;;32.47;;
47089;SDS011;32840;52.516;13.294;2024-01-10T03:06:30;83.85;;;35.15;;
47089;SDS011;32840;52.516;13.294;2024-01-10T03:09:15;76.00;;;33.55;;
47089;SDS011;32840;52.516;13.294;2024-01-10T03:12:00;77.85;;;34.45;;
47089;SDS011;32840;52.516;13.294;2024-01-10T03:14:45;85.90;;;35.22;;
47089;SDS011;32840;52.516;13.294;2024-01-10T03:17:30;79.32;;;33.95;;
47089;SDS011;32840;52.516;13.294;2024-01-10T03:20:17;85.70;;;35.22;;
47089;SDS011;32840;52.516;13.294;2024-01-10T03:23:02;73.70;;;34.10;;
47089;SDS011;32840;52.516;13.294;2024-01-10T03:25:48;84.35;;;37.17;;
47089;SDS011;32840;52.516;13.294;2024-01-10T03:28:36;82.15;;;36.70;;
47089;SDS011;32840;52.516;13.294;2024-01-10T03:31:21;82.40;;;35.25;;
47089;SDS011;32840;52.516;13.294;2024-01-10T03:34:07;85.38;;;36.05;;
47089;SDS011;32840;52.516;13.294;2024-01-10T03:36:52;91.93;;;36.55;;
47089;SDS011;32840;52.516;13.294;2024-01-10T03:39:37;89.68;;;38.13;;
47089;SDS011;32840;52.516;13.294;2024-01-10T03:42:22;89.93;;;38.50;;
47089;SDS011;32840;52.516;13.294;2024-01-10T03:45:07;84.60;;;36.53;;
47089;SDS011;32840;52.516;13.294;2024-01-10T03:47:51;84.00;;;34.38;;
47089;SDS011;32840;52.516;13.294;2024-01-10T03:50:36;86.95;;;36.85;;
47089;SDS011;32840;52.516;13.294;2024-01-10T03:53:22;89.75;;;36.50;;
47089;SDS011;32840;52.516;13.294;2024-01-10T03:56:07;90.03;;;36.67;;
47089;SDS011;32840;52.516;13.294;2024-01-10T03:58:52;92.30;;;39.67;;
47089;SDS011;32840;52.516;13.294;2024-01-10T04:01:37;91.10;;;38.33;;
47089;SDS011;32840;52.516;13.294;2024-01-10T04:04:23;92.40;;;37.47;;
47089;SDS011;32840;52.516;13.294;2024-01-10T04:07:08;96.72;;;41.10;;
47089;SDS011;32840;52.516;13.294;2024-01-10T04:09:54;96.70;;;38.13;;
47089;SDS011;32840;52.516;13.294;2024-01-10T04:12:40;94.82;;;37.55;;
47089;SDS011;32840;52.516;13.294;2024-01-10T04:15:25;88.80;;;38.10;;
47089;SDS011;32840;52.516;13.294;2024-01-10T04:18:10;93.30;;;40.10;;
47089;SDS011;32840;52.516;13.294;2024-01-10T04:20:55;95.95;;;39.38;;
47089;SDS011;32840;52.516;13.294;2024-01-10T04:23:40;89.30;;;38.05;;
47089;SDS011;32840;52.516;13.294;2024-01-10T04:26:25;91.93;;;38.17;;
47089;SDS011;32840;52.516;13.294;2024-01-10T04:29:10;86.07;;;38.28;;
47089;SDS011;32840;52.516;13.294;2024-01-10T04:31:56;86.00;;;35.85;;
47089;SDS011;32840;52.516;13.294;2024-01-10T04:34:42;87.45;;;34.10;;
47089;SDS011;32840;52.516;13.294;2024-01-10T04:37:27;78.43;;;34.17;;
47089;SDS011;32840;52.516;13.294;2024-01-10T04:40:13;80.90;;;34.55;;
47089;SDS011;32840;52.516;13.294;2024-01-10T04:42:58;78.82;;;34.28;;
47089;SDS011;32840;52.516;13.294;2024-01-10T04:45:43;84.13;;;35.33;;
47089;SDS011;32840;52.516;13.294;2024-01-10T04:48:28;88.72;;;35.72;;
47089;SDS011;32840;52.516;13.294;2024-01-10T04:51:13;81.78;;;34.63;;
47089;SDS011;32840;52.516;13.294;2024-01-10T04:53:59;91.78;;;38.38;;
47089;SDS011;32840;52.516;13.294;2024-01-10T04:56:43;89.75;;;38.00;;
47089;SDS011;32840;52.516;13.294;2024-01-10T04:59:28;90.60;;;37.95;;
47089;SDS011;32840;52.516;13.294;2024-01-10T05:02:13;84.93;;;35.65;;
47089;SDS011;32840;52.516;13.294;2024-01-10T05:04:58;95.28;;;39.00;;
47089;SDS011;32840;52.516;13.294;2024-01-10T05:07:43;93.35;;;37.38;;
47089;SDS011;32840;52.516;13.294;2024-01-10T05:10:28;86.00;;;37.58;;
47089;SDS011;32840;52.516;13.294;2024-01-10T05:13:13;94.78;;;36.20;;
47089;SDS011;32840;52.516;13.294;2024-01-10T05:15:58;85.32;;;37.33;;
47089;SDS011;32840;52.516;13.294;2024-01-10T05:18:43;93.13;;;38.00;;
47089;SDS011;32840;52.516;13.294;2024-01-10T05:21:29;93.47;;;37.72;;
47089;SDS011;32840;52.516;13.294;2024-01-10T05:24:15;91.57;;;36.78;;
47089;SDS011;32840;52.516;13.294;2024-01-10T05:27:00;91.43;;;39.17;;
47089;SDS011;32840;52.516;13.294;2024-01-10T05:29:46;86.78;;;37.10;;
47089;SDS011;32840;52.516;13.294;2024-01-10T05:32:31;90.95;;;37.25;;
47089;SDS011;32840;52.516;13.294;2024-01-10T05:35:16;95.40;;;38.20;;
47089;SDS011;32840;52.516;13.294;2024-01-10T05:38:01;95.60;;;38.00;;
47089;SDS011;32840;52.516;13.294;2024-01-10T05:40:50;90.38;;;40.10;;
47089;SDS011;32840;52.516;13.294;2024-01-10T05:43:35;102.18;;;39.75;;
47089;SDS011;32840;52.516;13.294;2024-01-10T05:46:20;90.60;;;40.10;;
47089;SDS011;32840;52.516;13.294;2024-01-10T05:49:05;96.70;;;38.95;;
47089;SDS011;32840;52.516;13.294;2024-01-10T05:51:51;94.90;;;39.95;;
47089;SDS011;32840;52.516;13.294;2024-01-10T05:54:36;94.68;;;42.22;;
47089;SDS011;32840;52.516;13.294;2024-01-10T05:57:21;99.30;;;39.75;;
47089;SDS011;32840;52.516;13.294;2024-01-10T06:00:07;93.20;;;39.65;;
47089;SDS011;32840;52.516;13.294;2024-01-10T06:02:53;85.03;;;35.47;;
47089;SDS011;32840;52.516;13.294;2024-01-10T06:05:38;84.05;;;34.60;;
47089;SDS011;32840;52.516;13.294;2024-01-10T06:08:23;75.07;;;33.40;;
47089;SDS011;32840;52.516;13.294;2024-01-10T06:11:10;82.00;;;35.25;;
47089;SDS011;32840;52.516;13.294;2024-01-10T06:13:55;81.53;;;33.05;;
47089;SDS011;32840;52.516;13.294;2024-01-10T06:16:41;76.65;;;34.15;;
47089;SDS011;32840;52.516;13.294;2024-01-10T06:19:26;76.97;;;32.85;;
47089;SDS011;32840;52.516;13.294;2024-01-10T06:22:11;81.05;;;33.88;;
47089;SDS011;32840;52.516;13.294;2024-01-10T06:24:56;72.93;;;32.78;;
47089;SDS011;32840;52.516;13.294;2024-01-10T06:27:41;79.07;;;33.45;;
47089;SDS011;32840;52.516;13.294;2024-01-10T06:30:26;88.07;;;37.08;;
47089;SDS011;32840;52.516;13.294;2024-01-10T06:33:11;75.10;;;33.20;;
47089;SDS011;32840;52.516;13.294;2024-01-10T06:35:56;81.30;;;34.95;;
47089;SDS011;32840;52.516;13.294;2024-01-10T06:38:41;77.40;;;33.13;;
47089;SDS011;32840;52.516;13.294;2024-01-10T06:41:26;80.70;;;33.40;;
47089;SDS011;32840;52.516;13.294;2024-01-10T06:44:11;72.00;;;33.75;;
47089;SDS011;32840;52.516;13.294;2024-01-10T06:46:56;72.50;;;31.90;;
47089;SDS011;32840;52.516;13.294;2024-01-10T06:49:41;80.45;;;34.45;;
47089;SDS011;32840;52.516;13.294;2024-01-10T06:52:25;80.07;;;34.00;;
47089;SDS011;32840;52.516;13.294;2024-01-10T06:55:10;75.80;;;32.67;;
47089;SDS011;32840;52.516;13.294;2024-01-10T06:57:55;78.85;;;33.45;;
47089;SDS011;32840;52.516;13.294;2024-01-10T07:00:40;78.38;;;34.45;;
47089;SDS011;32840;52.516;13.294;2024-01-10T07:03:26;80.38;;;33.80;;
47089;SDS011;32840;52.516;13.294;2024-01-10T07:06:11;81.15;;;33.00;;
47089;SDS011;32840;52.516;13.294;2024-01-10T07:08:59;82.22;;;34.20;;
47089;SDS011;32840;52.516;13.294;2024-01-10T07:11:47;82.43;;;33.60;;
47089;SDS011;32840;52.516;13.294;2024-01-10T07:14:32;79.78;;;32.90;;
47089;SDS011;32840;52.516;13.294;2024-01-10T07:17:17;83.15;;;34.53;;
47089;SDS011;32840;52.516;13.294;2024-01-10T07:20:02;81.63;;;35.10;;
47089;SDS011;32840;52.516;13.294;2024-01-10T07:22:47;79.03;;;33.10;;
47089;SDS011;32840;52.516;13.294;2024-01-10T07:25:33;80.43;;;34.70;;
47089;SDS011;32840;52.516;13.294;2024-01-10T07:28:18;82.38;;;35.40;;
47089;SDS011;32840;52.516;13.294;2024-01-10T07:31:04;89.30;;;35.05;;
47089;SDS011;32840;52.516;13.294;2024-01-10T07:33:49;81.55;;;33.20;;
47089;SDS011;32840;52.516;13.294;2024-01-10T07:36:40;78.90;;;35.50;;
47089;SDS011;32840;52.516;13.294;2024-01-10T07:39:27;76.15;;;33.10;;
47089;SDS011;32840;52.516;13.294;2024-01-10T07:42:12;74.53;;;32.00;;
47089;SDS011;32840;52.516;13.294;2024-01-10T07:44:57;77.97;;;32.60;;
47089;SDS011;32840;52.516;13.294;2024-01-10T07:47:44;77.50;;;32.72;;
47089;SDS011;32840;52.516;13.294;2024-01-10T07:50:30;77.22;;;32.08;;
47089;SDS011;32840;52.516;13.294;2024-01-10T07:53:15;79.32;;;33.70;;
47089;SDS011;32840;52.516;13.294;2024-01-10T07:56:00;82.88;;;35.50;;
47089;SDS011;32840;52.516;13.294;2024-01-10T07:58:46;73.55;;;31.63;;
47089;SDS011;32840;52.516;13.294;2024-01-10T08:01:30;81.93;;;34.50;;
47089;SDS011;32840;52.516;13.294;2024-01-10T08:04:17;80.18;;;32.20;;
47089;SDS011;32840;52.516;13.294;2024-01-10T08:07:01;80.45;;;33.55;;
47089;SDS011;32840;52.516;13.294;2024-01-10T08:09:46;81.57;;;34.13;;
47089;SDS011;32840;52.516;13.294;2024-01-10T08:12:31;82.50;;;35.90;;
47089;SDS011;32840;52.516;13.294;2024-01-10T08:15:16;88.13;;;32.78;;
47089;SDS011;32840;52.516;13.294;2024-01-10T08:18:01;81.78;;;34.28;;
47089;SDS011;32840;52.516;13.294;2024-01-10T08:20:47;80.90;;;32.78;;
47089;SDS011;32840;52.516;13.294;2024-01-10T08:23:32;103.90;;;42.95;;
47089;SDS011;32840;52.516;13.294;2024-01-10T08:26:17;74.85;;;32.25;;
47089;SDS011;32840;52.516;13.294;2024-01-10T08:29:02;84.93;;;33.65;;
47089;SDS011;32840;52.516;13.294;2024-01-10T08:31:47;76.55;;;33.35;;
47089;SDS011;32840;52.516;13.294;2024-01-10T08:34:32;77.10;;;31.83;;
47089;SDS011;32840;52.516;13.294;2024-01-10T08:37:17;81.55;;;31.98;;
47089;SDS011;32840;52.516;13.294;2024-01-10T08:40:02;76.57;;;32.85;;
47089;SDS011;32840;52.516;13.294;2024-01-10T08:42:52;72.90;;;32.75;;
47089;SDS011;32840;52.516;13.294;2024-01-10T08:45:37;72.63;;;32.75;;
47089;SDS011;32840;52.516;13.294;2024-01-10T08:48:22;74.30;;;33.00;;
47089;SDS011;32840;52.516;13.294;2024-01-10T08:51:07;75.95;;;32.58;;
47089;SDS011;32840;52.516;13.294;2024-01-10T08:53:53;81.03;;;36.50;;
47089;SDS011;32840;52.516;13.294;2024-01-10T08:56:38;74.68;;;31.17;;
47089;SDS011;32840;52.516;13.294;2024-01-10T08:59:23;68.30;;;32.47;;
47089;SDS011;32840;52.516;13.294;2024-01-10T09:02:08;82.15;;;33.60;;
47089;SDS011;32840;52.516;13.294;2024-01-10T09:04:53;80.07;;;32.85;;
47089;SDS011;32840;52.516;13.294;2024-01-10T09:07:38;76.63;;;32.40;;
47089;SDS011;32840;52.516;13.294;2024-01-10T09:10:23;82.97;;;33.20;;
47089;SDS011;32840;52.516;13.294;2024-01-10T09:13:11;79.35;;;34.88;;
47089;SDS011;32840;52.516;13.294;2024-01-10T09:15:59;77.28;;;33.70;;
47089;SDS011;32840;52.516;13.294;2024-01-10T09:18:44;78.60;;;32.85;;
47089;SDS011;32840;52.516;13.294;2024-01-10T09:21:29;75.57;;;31.83;;
47089;SDS011;32840;52.516;13.294;2024-01-10T09:24:14;74.35;;;31.85;;
47089;SDS011;32840;52.516;13.294;2024-01-10T09:26:58;73.65;;;30.80;;
47089;SDS011;32840;52.516;13.294;2024-01-10T09:29:43;70.82;;;31.75;;
47089;SDS011;32840;52.516;13.294;2024-01-10T09:32:28;65.95;;;30.25;;
47089;SDS011;32840;52.516;13.294;2024-01-10T09:35:13;67.90;;;29.58;;
47089;SDS011;32840;52.516;13.294;2024-01-10T09:37:58;62.47;;;28.08;;
47089;SDS011;32840;52.516;13.294;2024-01-10T09:40:44;69.90;;;29.45;;
47089;SDS011;32840;52.516;13.294;2024-01-10T09:43:30;70.97;;;30.02;;
47089;SDS011;32840;52.516;13.294;2024-01-10T09:46:15;69.25;;;30.60;;
47089;SDS011;32840;52.516;13.294;2024-01-10T09:49:03;65.70;;;28.77;;
47089;SDS011;32840;52.516;13.294;2024-01-10T09:51:49;68.57;;;27.80;;
47089;SDS011;32840;52.516;13.294;2024-01-10T09:54:34;61.97;;;28.05;;
47089;SDS011;32840;52.516;13.294;2024-01-10T09:57:24;63.80;;;27.60;;
47089;SDS011;32840;52.516;13.294;2024-01-10T10:00:10;69.13;;;28.73;;
47089;SDS011;32840;52.516;13.294;2024-01-10T10:02:55;68.43;;;28.65;;
47089;SDS011;32840;52.516;13.294;2024-01-10T10:05:41;66.60;;;30.33;;
47089;SDS011;32840;52.516;13.294;2024-01-10T10:08:26;65.78;;;27.58;;
47089;SDS011;32840;52.516;13.294;2024-01-10T10:11:12;71.05;;;29.08;;
47089;SDS011;32840;52.516;13.294;2024-01-10T10:14:13;64.57;;;29.02;;
47089;SDS011;32840;52.516;13.294;2024-01-10T10:17:15;67.70;;;29.25;;
47089;SDS011;32840;52.516;13.294;2024-01-10T10:20:03;66.55;;;29.50;;
47089;SDS011;32840;52.516;13.294;2024-01-10T10:23:04;62.90;;;28.63;;
47089;SDS011;32840;52.516;13.294;2024-01-10T10:25:57;67.40;;;28.95;;
47089;SDS011;32840;52.516;13.294;2024-01-10T10:28:43;61.80;;;29.38;;
47089;SDS011;32840;52.516;13.294;2024-01-10T10:31:28;61.17;;;27.73;;
47089;SDS011;32840;52.516;13.294;2024-01-10T10:34:16;60.95;;;27.35;;
47089;SDS011;32840;52.516;13.294;2024-01-10T10:37:06;63.70;;;28.50;;
47089;SDS011;32840;52.516;13.294;2024-01-10T10:39:51;62.90;;;28.50;;
47089;SDS011;32840;52.516;13.294;2024-01-10T10:42:37;62.33;;;28.73;;
47089;SDS011;32840;52.516;13.294;2024-01-10T10:45:28;66.97;;;28.63;;
47089;SDS011;32840;52.516;13.294;2024-01-10T10:48:18;69.03;;;29.27;;
47089;SDS011;32840;52.516;13.294;2024-01-10T10:51:06;58.22;;;24.90;;
47089;SDS011;32840;52.516;13.294;2024-01-10T10:53:55;53.00;;;24.75;;
47089;SDS011;32840;52.516;13.294;2024-01-10T10:56:41;47.83;;;22.58;;
47089;SDS011;32840;52.516;13.294;2024-01-10T10:59:29;49.92;;;22.25;;
47089;SDS011;32840;52.516;13.294;2024-01-10T11:02:21;51.50;;;23.33;;
47089;SDS011;32840;52.516;13.294;2024-01-10T11:07:54;52.35;;;23.05;;
47089;SDS011;32840;52.516;13.294;2024-01-10T11:10:39;49.10;;;21.98;;
47089;SDS011;32840;52.516;13.294;2024-01-10T11:25:00;60.70;;;29.00;;
47089;SDS011;32840;52.516;13.294;2024-01-10T11:27:45;59.30;;;27.48;;
47089;SDS011;32840;52.516;13.294;2024-01-10T11:33:24;54.78;;;25.27;;
47089;SDS011;32840;52.516;13.294;2024-01-10T11:36:18;57.20;;;25.63;;
47089;SDS011;32840;52.516;13.294;2024-01-10T11:39:04;63.17;;;26.00;;
47089;SDS011;32840;52.516;13.294;2024-01-10T11:41:50;88.45;;;42.95;;
47089;SDS011;32840;52.516;13.294;2024-01-10T11:44:46;63.03;;;28.48;;
47089;SDS011;32840;52.516;13.294;2024-01-10T11:47:34;61.15;;;24.95;;
47089;SDS011;32840;52.516;13.294;2024-01-10T11:50:21;58.17;;;27.08;;
47089;SDS011;32840;52.516;13.294;2024-01-10T11:53:08;62.05;;;26.30;;
47089;SDS011;32840;52.516;13.294;2024-01-10T11:55:52;63.25;;;27.00;;
47089;SDS011;32840;52.516;13.294;2024-01-10T12:01:52;56.50;;;27.42;;
47089;SDS011;32840;52.516;13.294;2024-01-10T12:04:39;58.65;;;25.73;;
47089;SDS011;32840;52.516;13.294;2024-01-10T12:07:24;57.75;;;26.65;;
47089;SDS011;32840;52.516;13.294;2024-01-10T12:10:09;49.38;;;24.45;;
47089;SDS011;32840;52.516;13.294;2024-01-10T12:12:54;52.35;;;24.63;;
47089;SDS011;32840;52.516;13.294;2024-01-10T12:15:41;54.08;;;24.23;;
47089;SDS011;32840;52.516;13.294;2024-01-10T12:18:26;52.05;;;23.38;;
47089;SDS011;32840;52.516;13.294;2024-01-10T12:21:11;51.80;;;22.58;;
47089;SDS011;32840;52.516;13.294;2024-01-10T12:23:56;53.28;;;22.38;;
47089;SDS011;32840;52.516;13.294;2024-01-10T12:26:44;48.38;;;22.05;;
47089;SDS011;32840;52.516;13.294;2024-01-10T12:29:32;49.97;;;22.90;;
47089;SDS011;32840;52.516;13.294;2024-01-10T12:32:18;45.83;;;21.25;;
47089;SDS011;32840;52.516;13.294;2024-01-10T12:35:05;44.85;;;21.95;;
47089;SDS011;32840;52.516;13.294;2024-01-10T12:37:56;47.15;;;22.98;;
47089;SDS011;32840;52.516;13.294;2024-01-10T12:40:41;48.25;;;21.90;;
47089;SDS011;32840;52.516;13.294;2024-01-10T12:43:26;57.38;;;22.40;;
47089;SDS011;32840;52.516;13.294;2024-01-10T12:46:12;46.85;;;21.95;;
47089;SDS011;32840;52.516;13.294;2024-01-10T12:48:58;44.50;;;21.17;;
47089;SDS011;32840;52.516;13.294;2024-01-10T12:51:44;53.58;;;23.20;;
47089;SDS011;32840;52.516;13.294;2024-01-10T12:54:31;43.72;;;20.75;;
47089;SDS011;32840;52.516;13.294;2024-01-10T12:57:16;46.72;;;22.38;;
47089;SDS011;32840;52.516;13.294;2024-01-10T13:00:01;131.38;;;45.60;;
47089;SDS011;32840;52.516;13.294;2024-01-10T13:02:50;61.55;;;27.90;;
47089;SDS011;32840;52.516;13.294;2024-01-10T13:05:36;49.00;;;21.90;;
47089;SDS011;32840;52.516;13.294;2024-01-10T13:08:21;53.80;;;25.75;;
47089;SDS011;32840;52.516;13.294;2024-01-10T13:11:06;77.22;;;34.35;;
47089;SDS011;32840;52.516;13.294;2024-01-10T13:13:53;63.13;;;28.63;;
47089;SDS011;32840;52.516;13.294;2024-01-10T13:16:38;80.13;;;38.47;;
47089;SDS011;32840;52.516;13.294;2024-01-10T13:19:23;73.35;;;32.55;;
47089;SDS011;32840;52.516;13.294;2024-01-10T13:22:08;56.10;;;26.50;;
47089;SDS011;32840;52.516;13.294;2024-01-10T13:24:53;61.75;;;28.52;;
47089;SDS011;32840;52.516;13.294;2024-01-10T13:27:37;58.47;;;26.65;;
47089;SDS011;32840;52.516;13.294;2024-01-10T13:30:22;64.18;;;28.80;;
47089;SDS011;32840;52.516;13.294;2024-01-10T13:33:07;65.53;;;29.38;;
47089;SDS011;32840;52.516;13.294;2024-01-10T13:35:53;55.42;;;27.30;;
47089;SDS011;32840;52.516;13.294;2024-01-10T13:38:38;62.55;;;27.42;;
47089;SDS011;32840;52.516;13.294;2024-01-10T13:41:23;59.67;;;27.77;;
47089;SDS011;32840;52.516;13.294;2024-01-10T13:44:08;61.88;;;27.48;;
47089;SDS011;32840;52.516;13.294;2024-01-10T13:46:54;56.17;;;25.58;;
47089;SDS011;32840;52.516;13.294;2024-01-10T13:49:39;55.20;;;25.63;;
47089;SDS011;32840;52.516;13.294;2024-01-10T13:52:24;56.15;;;25.23;;
47089;SDS011;32840;52.516;13.294;2024-01-10T13:55:09;55.38;;;24.08;;
47089;SDS011;32840;52.516;13.294;2024-01-10T13:57:54;60.70;;;27.85;;
47089;SDS011;32840;52.516;13.294;2024-01-10T14:00:40;56.22;;;25.60;;
47089;SDS011;32840;52.516;13.294;2024-01-10T14:03:25;59.22;;;27.20;;
47089;SDS011;32840;52.516;13.294;2024-01-10T14:06:11;52.42;;;25.45;;
47089;SDS011;32840;52.516;13.294;2024-01-10T14:08:56;58.88;;;25.75;;
47089;SDS011;32840;52.516;13.294;2024-01-10T14:11:42;59.40;;;25.45;;
47089;SDS011;32840;52.516;13.294;2024-01-10T14:14:28;54.00;;;25.90;;
47089;SDS011;32840;52.516;13.294;2024-01-10T14:17:13;63.05;;;27.95;;
47089;SDS011;32840;52.516;13.294;2024-01-10T14:19:58;58.10;;;25.33;;
47089;SDS011;32840;52.516;13.294;2024-01-10T14:22:43;61.05;;;27.13;;
47089;SDS011;32840;52.516;13.294;2024-01-10T14:25:29;58.40;;;28.00;;
47089;SDS011;32840;52.516;13.294;2024-01-10T14:28:14;55.95;;;26.55;;
47089;SDS011;32840;52.516;13.294;2024-01-10T14:30:59;54.47;;;25.23;;
47089;SDS011;32840;52.516;13.294;2024-01-10T14:33:44;114.90;;;56.70;;
47089;SDS011;32840;52.516;13.294;2024-01-10T14:36:29;108.65;;;44.58;;
47089;SDS011;32840;52.516;13.294;2024-01-10T14:39:14;52.53;;;24.50;;
47089;SDS011;32840;52.516;13.294;2024-01-10T14:41:59;52.20;;;24.20;;
47089;SDS011;32840;52.516;13.294;2024-01-10T14:44:44;55.03;;;22.30;;
47089;SDS011;32840;52.516;13.294;2024-01-10T14:47:29;53.33;;;24.48;;
47089;SDS011;32840;52.516;13.294;2024-01-10T14:50:17;57.00;;;26.60;;
47089;SDS011;32840;52.516;13.294;2024-01-10T14:53:04;63.78;;;28.75;;
47089;SDS011;32840;52.516;13.294;2024-01-10T14:55:49;64.57;;;26.73;;
47089;SDS011;32840;52.516;13.294;2024-01-10T14:58:36;48.90;;;24.13;;
47089;SDS011;32840;52.516;13.294;2024-01-10T15:01:21;68.80;;;27.50;;
47089;SDS011;32840;52.516;13.294;2024-01-10T15:04:12;50.50;;;19.33;;
47089;SDS011;32840;52.516;13.294;2024-01-10T15:06:58;55.15;;;23.45;;
47089;SDS011;32840;52.516;13.294;2024-01-10T15:09:47;51.75;;;22.70;;
47089;SDS011;32840;52.516;13.294;2024-01-10T15:12:40;57.35;;;26.50;;
47089;SDS011;32840;52.516;13.294;2024-01-10T15:15:41;56.55;;;23.90;;
47089;SDS011;32840;52.516;13.294;2024-01-10T15:18:39;70.85;;;32.55;;
47089;SDS011;32840;52.516;13.294;2024-01-10T15:21:29;61.50;;;28.75;;
47089;SDS011;32840;52.516;13.294;2024-01-10T15:24:20;56.63;;;25.02;;
47089;SDS011;32840;52.516;13.294;2024-01-10T15:27:08;71.20;;;32.20;;
47089;SDS011;32840;52.516;13.294;2024-01-10T15:29:56;57.30;;;26.52;;
47089;SDS011;32840;52.516;13.294;2024-01-10T15:32:43;63.13;;;26.23;;
47089;SDS011;32840;52.516;13.294;2024-01-10T15:35:38;71.63;;;29.83;;
47089;SDS011;32840;52.516;13.294;2024-01-10T15:38:23;66.25;;;29.02;;
47089;SDS011;32840;52.516;13.294;2024-01-10T15:41:10;55.38;;;25.70;;
47089;SDS011;32840;52.516;13.294;2024-01-10T15:43:55;54.40;;;26.42;;
47089;SDS011;32840;52.516;13.294;2024-01-10T15:46:44;103.57;;;47.75;;
47089;SDS011;32840;52.516;13.294;2024-01-10T15:49:53;71.10;;;31.92;;
47089;SDS011;32840;52.516;13.294;2024-01-10T15:52:48;68.00;;;29.33;;
47089;SDS011;32840;52.516;13.294;2024-01-10T15:55:35;58.35;;;26.83;;
47089;SDS011;32840;52.516;13.294;2024-01-10T15:58:22;58.80;;;26.98;;
47089;SDS011;32840;52.516;13.294;2024-01-10T16:01:18;65.75;;;28.48;;
47089;SDS011;32840;52.516;13.294;2024-01-10T16:04:03;60.55;;;28.23;;
47089;SDS011;32840;52.516;13.294;2024-01-10T16:06:49;64.28;;;30.35;;
47089;SDS011;32840;52.516;13.294;2024-01-10T16:09:35;59.72;;;26.88;;
47089;SDS011;32840;52.516;13.294;2024-01-10T16:12:21;68.35;;;28.75;;
47089;SDS011;32840;52.516;13.294;2024-01-10T16:15:17;67.20;;;28.60;;
47089;SDS011;32840;52.516;13.294;2024-01-10T16:18:02;61.00;;;26.98;;